Time,TemperatureF,DewpointF,PressureIn,WindDirection,WindDirectionDegrees,WindSpeedMPH,WindSpeedGustMPH,Humidity,HourlyPrecipIn,Conditions,Clouds,dailyrainin,SoftwareType,DateUTC
2013-03-16 00:03:00,33.0,25.0,-100.00,WNW,285,2.0,13.0,72,-99.99,,,-99.99,,2013-03-16 04:03:00,
2013-03-16 00:13:00,33.0,25.0,-100.00,SW,235,3.0,8.0,71,-99.99,,,-99.99,,2013-03-16 04:13:00,
2013-03-16 00:23:00,33.0,25.0,-100.00,SW,235,3.0,8.0,71,-99.99,,,-99.99,,2013-03-16 04:23:00,
2013-03-16 00:43:00,34.0,23.0,-100.00,WNW,295,9.0,18.0,66,-99.99,,,-99.99,,2013-03-16 04:43:00,
2013-03-16 00:53:00,34.0,23.0,-100.00,WNW,295,9.0,18.0,66,-99.99,,,-99.99,,2013-03-16 04:53:00,
2013-03-16 01:03:00,34.0,23.0,-100.00,NW,305,7.0,15.0,62,-99.99,,,-99.99,,2013-03-16 05:03:00,
2013-03-16 01:12:00,35.0,22.0,-100.00,NW,305,7.0,17.0,61,-99.99,,,-99.99,,2013-03-16 05:12:00,
2013-03-16 01:22:00,35.0,22.0,-100.00,WNW,295,10.0,20.0,59,-99.99,,,-99.99,,2013-03-16 05:22:00,
2013-03-16 01:32:00,35.0,21.0,-100.00,NW,305,12.0,18.0,58,-99.99,,,-99.99,,2013-03-16 05:32:00,
2013-03-16 01:42:00,34.0,22.0,-100.00,NW,305,9.0,15.0,60,-99.99,,,-99.99,,2013-03-16 05:42:00,
2013-03-16 01:52:00,34.0,22.0,-100.00,NW,305,8.0,14.0,60,-99.99,,,-99.99,,2013-03-16 05:52:00,
2013-03-16 02:02:00,34.0,22.0,-100.00,NW,315,10.0,15.0,60,-99.99,,,-99.99,,2013-03-16 06:02:00,
2013-03-16 02:12:00,34.0,21.0,-100.00,WNW,300,8.0,13.0,60,-99.99,,,-99.99,,2013-03-16 06:12:00,
2013-03-16 02:22:00,34.0,21.0,-100.00,WNW,300,9.0,15.0,59,-99.99,,,-99.99,,2013-03-16 06:22:00,
2013-03-16 02:32:00,34.0,21.0,-100.00,NW,315,7.0,13.0,60,-99.99,,,-99.99,,2013-03-16 06:32:00,
2013-03-16 02:42:00,33.0,21.0,-100.00,NNW,330,13.0,18.0,61,-99.99,,,-99.99,,2013-03-16 06:42:00,
2013-03-16 02:52:00,32.0,23.0,-100.00,North,350,9.0,18.0,68,-99.99,,,-99.99,,2013-03-16 06:52:00,
2013-03-16 03:02:00,32.0,22.0,-100.00,NW,325,8.0,14.0,66,-99.99,,,-99.99,,2013-03-16 07:02:00,
2013-03-16 03:32:00,31.0,20.0,-100.00,NW,315,6.0,15.0,63,-99.99,,,-99.99,,2013-03-16 07:32:00,
2013-03-16 03:42:00,31.0,20.0,-100.00,NNW,330,5.0,9.0,63,-99.99,,,-99.99,,2013-03-16 07:42:00,
2013-03-16 03:52:00,31.0,19.0,-100.00,NNW,330,7.0,10.0,62,-99.99,,,-99.99,,2013-03-16 07:52:00,
2013-03-16 04:03:00,30.0,20.0,-100.00,NW,315,5.0,10.0,64,-99.99,,,-99.99,,2013-03-16 08:03:00,
2013-03-16 04:12:00,30.0,19.0,-100.00,NNW,330,5.0,9.0,63,-99.99,,,-99.99,,2013-03-16 08:12:00,
2013-03-16 04:23:00,29.0,20.0,-100.00,NNW,335,1.0,7.0,67,-99.99,,,-99.99,,2013-03-16 08:23:00,
2013-03-16 04:33:00,29.0,21.0,-100.00,SW,220,2.0,2.0,71,-99.99,,,-99.99,,2013-03-16 08:33:00,
2013-03-16 04:42:00,28.0,21.0,-100.00,SSE,150,0.0,2.0,72,-99.99,,,-99.99,,2013-03-16 08:42:00,
2013-03-16 04:52:00,28.0,20.0,-100.00,SW,215,1.0,2.0,72,-99.99,,,-99.99,,2013-03-16 08:52:00,
2013-03-16 05:02:00,27.0,20.0,-100.00,SW,215,1.0,2.0,73,-99.99,,,-99.99,,2013-03-16 09:02:00,
2013-03-16 05:12:00,27.0,20.0,-100.00,WNW,295,0.0,2.0,74,-99.99,,,-99.99,,2013-03-16 09:12:00,
2013-03-16 05:22:00,27.0,20.0,-100.00,WNW,300,2.0,6.0,74,-99.99,,,-99.99,,2013-03-16 09:22:00,
2013-03-16 05:30:00,29.0,14.0,-100.00,NW,305,7.0,14.0,53,-99.99,,,-99.99,,2013-03-16 09:30:00,
2013-03-16 05:33:00,27.0,20.0,-100.00,NW,310,3.0,5.0,74,-99.99,,,-99.99,,2013-03-16 09:33:00,
2013-03-16 05:42:00,29.0,17.0,-100.00,WNW,295,6.0,8.0,62,-99.99,,,-99.99,,2013-03-16 09:42:00,
2013-03-16 05:52:00,29.0,17.0,-100.00,NW,310,5.0,8.0,62,-99.99,,,-99.99,,2013-03-16 09:52:00,
2013-03-16 06:03:00,29.0,17.0,-100.00,NW,310,5.0,8.0,62,-99.99,,,-99.99,,2013-03-16 10:03:00,
2013-03-16 06:12:00,29.0,14.0,-100.00,NW,305,7.0,14.0,53,-99.99,,,-99.99,,2013-03-16 10:12:00,
2013-03-16 06:23:00,29.0,14.0,-100.00,NW,305,7.0,14.0,53,-99.99,,,-99.99,,2013-03-16 10:23:00,
2013-03-16 08:32:00,28.0,12.0,-100.00,NW,310,7.0,15.0,51,-99.99,,,-99.99,,2013-03-16 12:32:00,
2013-03-16 15:33:00,36.0,4.0,-100.00,WNW,295,9.0,13.0,25,-99.99,,,-99.99,,2013-03-16 19:33:00,
2013-03-16 16:33:00,38.0,5.0,-100.00,West,265,5.0,9.0,25,-99.99,,,-99.99,,2013-03-16 20:33:00,
2013-03-16 16:42:00,38.0,5.0,-100.00,WNW,295,5.0,14.0,25,-99.99,,,-99.99,,2013-03-16 20:42:00,
2013-03-16 16:52:00,37.0,5.0,-100.00,WNW,295,3.0,14.0,25,-99.99,,,-99.99,,2013-03-16 20:52:00,
2013-03-16 17:02:00,38.0,4.0,-100.00,NW,305,6.0,9.0,24,-99.99,,,-99.99,,2013-03-16 21:02:00,
2013-03-16 17:30:00,37.0,7.0,-100.00,West,280,2.0,5.0,27,-99.99,,,-99.99,,2013-03-16 21:30:00,
2013-03-16 18:03:00,37.0,7.0,-100.00,West,275,2.0,6.0,27,-99.99,,,-99.99,,2013-03-16 22:03:00,
2013-03-16 18:13:00,37.0,7.0,-100.00,West,280,2.0,5.0,27,-99.99,,,-99.99,,2013-03-16 22:13:00,
2013-03-16 18:23:00,37.0,7.0,-100.00,West,280,2.0,5.0,27,-99.99,,,-99.99,,2013-03-16 22:23:00,
2013-03-16 18:42:00,37.0,11.0,-100.00,WSW,245,2.0,3.0,34,-99.99,,,-99.99,,2013-03-16 22:42:00,
2013-03-16 19:13:00,36.0,8.0,-100.00,WSW,245,0.0,1.0,31,-99.99,,,-99.99,,2013-03-16 23:13:00,
2013-03-16 19:23:00,36.0,8.0,-100.00,West,275,0.0,3.0,31,-99.99,,,-99.99,,2013-03-16 23:23:00,
2013-03-16 19:33:00,36.0,9.0,-100.00,NW,315,3.0,5.0,31,-99.99,,,-99.99,,2013-03-16 23:33:00,
2013-03-16 19:42:00,36.0,9.0,-100.00,NW,305,2.0,7.0,31,-99.99,,,-99.99,,2013-03-16 23:42:00,
2013-03-16 19:52:00,36.0,9.0,-100.00,NW,325,2.0,5.0,32,-99.99,,,-99.99,,2013-03-16 23:52:00,
2013-03-16 20:02:00,36.0,9.0,-100.00,NNW,335,2.0,5.0,32,-99.99,,,-99.99,,2013-03-17 00:02:00,
2013-03-16 20:13:00,36.0,8.0,-100.00,NNW,330,3.0,6.0,31,-99.99,,,-99.99,,2013-03-17 00:13:00,
2013-03-16 20:23:00,36.0,9.0,-100.00,NNW,340,3.0,6.0,32,-99.99,,,-99.99,,2013-03-17 00:23:00,
2013-03-16 20:33:00,36.0,9.0,-100.00,NNW,340,3.0,6.0,32,-99.99,,,-99.99,,2013-03-17 00:33:00,
2013-03-16 20:42:00,34.0,14.0,-100.00,SSW,210,0.0,2.0,42,-99.99,,,-99.99,,2013-03-17 00:42:00,
2013-03-16 20:53:00,34.0,12.0,-100.00,ENE,60,0.0,1.0,40,-99.99,,,-99.99,,2013-03-17 00:53:00,
2013-03-16 21:03:00,34.0,11.0,-100.00,SSE,155,0.0,1.0,39,-99.99,,,-99.99,,2013-03-17 01:03:00,
2013-03-16 21:12:00,33.0,14.0,-100.00,South,190,1.0,2.0,44,-99.99,,,-99.99,,2013-03-17 01:12:00,
2013-03-16 21:22:00,33.0,11.0,-100.00,NW,325,0.0,1.0,39,-99.99,,,-99.99,,2013-03-17 01:22:00,
2013-03-16 21:32:00,33.0,10.0,-100.00,SSE,160,1.0,1.0,38,-99.99,,,-99.99,,2013-03-17 01:32:00,
2013-03-16 21:42:00,33.0,12.0,-100.00,NNE,15,2.0,3.0,41,-99.99,,,-99.99,,2013-03-17 01:42:00,
2013-03-16 21:52:00,34.0,12.0,-100.00,ENE,75,1.0,5.0,40,-99.99,,,-99.99,,2013-03-17 01:52:00,
2013-03-16 22:03:00,34.0,14.0,-100.00,North,0,1.0,2.0,43,-99.99,,,-99.99,,2013-03-17 02:03:00,
2013-03-16 22:13:00,33.0,11.0,-100.00,East,80,1.0,2.0,41,-99.99,,,-99.99,,2013-03-17 02:13:00,
2013-03-16 22:23:00,32.0,12.0,-100.00,North,355,0.0,1.0,42,-99.99,,,-99.99,,2013-03-17 02:23:00,
2013-03-16 22:33:00,32.0,11.0,-100.00,East,100,1.0,2.0,41,-99.99,,,-99.99,,2013-03-17 02:33:00,
2013-03-16 22:43:00,33.0,12.0,-100.00,NE,45,0.0,1.0,42,-99.99,,,-99.99,,2013-03-17 02:43:00,
2013-03-16 22:52:00,33.0,12.0,-100.00,NE,45,0.0,1.0,42,-99.99,,,-99.99,,2013-03-17 02:52:00,
2013-03-16 23:03:00,32.0,11.0,-100.00,SSE,160,0.0,1.0,40,-99.99,,,-99.99,,2013-03-17 03:03:00,
2013-03-16 23:12:00,32.0,9.0,-100.00,East,90,0.0,1.0,38,-99.99,,,-99.99,,2013-03-17 03:12:00,
2013-03-16 23:23:00,33.0,10.0,-100.00,ENE,70,0.0,1.0,39,-99.99,,,-99.99,,2013-03-17 03:23:00,
2013-03-16 23:30:00,32.0,11.0,-100.00,North,355,5.0,7.0,41,-99.99,,,-99.99,,2013-03-17 03:30:00,
2013-03-16 23:34:00,32.0,13.0,-100.00,East,80,0.0,1.0,44,-99.99,,,-99.99,,2013-03-17 03:34:00,
2013-03-16 23:43:00,32.0,12.0,-100.00,NNE,15,2.0,2.0,43,-99.99,,,-99.99,,2013-03-17 03:43:00,
2013-03-16 23:52:00,33.0,11.0,-100.00,North,10,3.0,8.0,41,-99.99,,,-99.99,,2013-03-17 03:52:00,